M I D A S
Marine Information and Data Acquisition System
Tripno 2290 of the Zeeleeuw from 2012-04-16 07:19:15 to 2012-04-16 17:02:20
Back to CruiseResearch ActivitiesStationsMapUnderway DataData graphs

EquipmentUnitsComment
TimeDGPSUTC
LatitudeDGPSDM.mWGS84
LongitudeDGPSDM.mWGS84
HeadingGyrodeg 
SOGDGPSknotsSpeed over ground
COGDGPSdegCourse over ground
DepthEcho soundermeters200 kHz
Missing or incorrect values are displayed as -999
Navigation data collected by the RV Zeeleeuw from 2012-04-16 05:55:52 to 2012-04-16 17:18:31
                                                                                    Next 1000 lines
Time Latitude Longitude Heading SOG COG Depth
2012-04-16 05:56:02 51°13.638 2°56.019 125.3 0.1 242 -999
2012-04-16 05:56:06 51°13.638 2°56.019 125.4 0.1 243 -999
2012-04-16 05:56:13 51°13.638 2°56.018 125.4 0.2 245 -999
2012-04-16 05:56:17 51°13.638 2°56.018 125.4 0.2 227 -999
2012-04-16 05:56:23 51°13.638 2°56.018 125.4 -999 266 -999
2012-04-16 05:56:27 51°13.638 2°56.018 125.4 -999 274 -999
2012-04-16 05:56:32 51°13.638 2°56.017 125.4 0.1 264 -999
2012-04-16 05:56:37 51°13.638 2°56.017 125.4 -999 279 -999
2012-04-16 05:56:42 51°13.638 2°56.017 125.4 -999 36 -999
2012-04-16 05:56:47 51°13.638 2°56.017 125.4 0.1 227 -999
2012-04-16 05:56:53 51°13.637 2°56.017 125.4 0.1 251 -999
2012-04-16 05:56:58 51°13.637 2°56.017 125.4 -999 161 -999
2012-04-16 05:57:03 51°13.637 2°56.018 125.4 0.1 92 -999
2012-04-16 05:57:07 51°13.637 2°56.017 125.4 0.1 92 -999
2012-04-16 05:57:12 51°13.637 2°56.016 125.5 0.1 329 -999
2012-04-16 05:57:17 51°13.637 2°56.017 125.5 0.1 292 -999
2012-04-16 05:57:22 51°13.637 2°56.017 125.5 -999 336 -999
2012-04-16 05:57:27 51°13.637 2°56.018 125.5 -999 332 -999
2012-04-16 05:57:32 51°13.637 2°56.018 125.5 -999 349 -999
2012-04-16 05:57:37 51°13.637 2°56.018 125.5 0.1 35 -999
2012-04-16 05:57:42 51°13.638 2°56.018 125.5 0.2 36 -999
2012-04-16 05:57:47 51°13.638 2°56.018 125.5 0.1 36 -999
2012-04-16 05:57:52 51°13.638 2°56.018 125.5 -999 46 -999
2012-04-16 05:57:57 51°13.637 2°56.018 125.5 -999 131 -999
2012-04-16 05:58:03 51°13.637 2°56.018 125.5 -999 19 -999
2012-04-16 05:58:08 51°13.637 2°56.017 125.5 -999 346 -999
2012-04-16 05:58:12 51°13.637 2°56.018 125.5 0.1 98 -999
2012-04-16 05:58:18 51°13.637 2°56.019 125.5 0.1 93 -999
2012-04-16 05:58:23 51°13.638 2°56.018 125.5 -999 32 -999
2012-04-16 05:58:28 51°13.638 2°56.018 125.5 -999 319 -999
2012-04-16 05:58:32 51°13.638 2°56.017 125.5 0.1 277 -999
2012-04-16 05:58:38 51°13.638 2°56.018 125.5 -999 268 -999
2012-04-16 05:58:43 51°13.638 2°56.018 125.5 -999 300 -999
2012-04-16 05:58:48 51°13.638 2°56.018 125.5 0.1 88 -999
2012-04-16 05:58:53 51°13.638 2°56.019 125.5 0.1 113 -999
2012-04-16 05:58:58 51°13.638 2°56.018 125.5 -999 274 -999
2012-04-16 05:59:03 51°13.638 2°56.018 125.4 -999 83 -999
2012-04-16 05:59:08 51°13.638 2°56.019 125.4 0.1 143 -999
2012-04-16 05:59:12 51°13.638 2°56.019 125.3 -999 188 -999
2012-04-16 05:59:17 51°13.638 2°56.018 125.3 0.1 303 -999
2012-04-16 05:59:22 51°13.638 2°56.018 125.3 -999 207 -999
2012-04-16 05:59:27 51°13.638 2°56.019 125.3 0.1 86 -999
2012-04-16 05:59:33 51°13.638 2°56.019 125.3 0.1 276 -999
2012-04-16 05:59:38 51°13.637 2°56.019 125.3 0.1 82 -999
2012-04-16 05:59:43 51°13.637 2°56.019 125.3 0.1 115 -999
2012-04-16 05:59:48 51°13.637 2°56.019 125.3 -999 275 -999
2012-04-16 05:59:53 51°13.637 2°56.019 125.3 -999 244 -999
2012-04-16 05:59:58 51°13.637 2°56.019 125.3 0.1 275 -999
2012-04-16 06:00:03 51°13.637 2°56.019 125.3 0.1 285 -999
2012-04-16 06:00:08 51°13.637 2°56.019 125.3 -999 11 -999
2012-04-16 06:00:13 51°13.637 2°56.019 125.3 -999 200 -999
2012-04-16 06:00:18 51°13.637 2°56.019 125.3 -999 64 -999
2012-04-16 06:00:22 51°13.637 2°56.019 125.3 0.1 84 -999
2012-04-16 06:00:27 51°13.637 2°56.019 125.3 -999 148 -999
2012-04-16 06:00:32 51°13.637 2°56.018 125.3 0.1 269 -999
2012-04-16 06:00:37 51°13.637 2°56.019 125.3 -999 266 -999
2012-04-16 06:00:42 51°13.637 2°56.019 125.3 -999 114 -999
2012-04-16 06:00:48 51°13.637 2°56.019 125.3 0.1 118 -999
2012-04-16 06:00:53 51°13.637 2°56.019 125.3 0.1 261 -999
2012-04-16 06:00:58 51°13.637 2°56.019 125.3 0.1 274 -999
2012-04-16 06:01:02 51°13.637 2°56.019 125.3 -999 226 -999
2012-04-16 06:01:07 51°13.637 2°56.019 125.3 -999 55 -999
2012-04-16 06:01:12 51°13.637 2°56.019 125.3 0.1 305 -999
2012-04-16 06:01:18 51°13.637 2°56.019 125.3 -999 347 -999
2012-04-16 06:01:23 51°13.637 2°56.019 125.3 0.1 242 -999
2012-04-16 06:01:28 51°13.637 2°56.019 125.3 0.1 294 -999
2012-04-16 06:01:33 51°13.637 2°56.019 125.3 -999 185 -999
2012-04-16 06:01:38 51°13.637 2°56.019 125.3 -999 245 -999
2012-04-16 06:01:42 51°13.637 2°56.019 125.4 0.1 263 -999
2012-04-16 06:01:47 51°13.637 2°56.02 125.4 -999 84 -999
2012-04-16 06:01:52 51°13.637 2°56.02 125.4 0.1 98 -999
2012-04-16 06:01:57 51°13.637 2°56.021 125.4 0.2 110 -999
2012-04-16 06:02:02 51°13.637 2°56.019 125.4 0.1 282 -999
2012-04-16 06:02:07 51°13.637 2°56.02 125.4 0.1 94 -999
2012-04-16 06:02:13 51°13.637 2°56.02 125.4 0.1 127 -999
2012-04-16 06:02:18 51°13.637 2°56.019 125.4 -999 156 -999
2012-04-16 06:02:21 51°13.637 2°56.019 125.4 0.1 259 -999
2012-04-16 06:02:27 51°13.637 2°56.019 125.4 0.1 287 -999
2012-04-16 06:02:33 51°13.637 2°56.019 125.4 -999 233 -999
2012-04-16 06:02:38 51°13.636 2°56.019 125.4 -999 227 -999
2012-04-16 06:02:43 51°13.636 2°56.019 125.4 0.1 325 -999
2012-04-16 06:02:48 51°13.636 2°56.019 125.4 0.1 142 -999
2012-04-16 06:02:53 51°13.636 2°56.019 125.4 -999 294 -999
2012-04-16 06:02:57 51°13.636 2°56.019 125.4 -999 229 -999
2012-04-16 06:03:03 51°13.636 2°56.019 125.4 -999 19 -999
2012-04-16 06:03:07 51°13.636 2°56.02 125.4 0.1 106 -999
2012-04-16 06:03:13 51°13.636 2°56.019 125.4 -999 269 -999
2012-04-16 06:03:17 51°13.636 2°56.019 125.4 0.1 302 -999
2012-04-16 06:03:22 51°13.636 2°56.019 125.4 0.2 272 -999
2012-04-16 06:03:27 51°13.636 2°56.02 125.4 0.1 32 -999
2012-04-16 06:03:33 51°13.636 2°56.02 125.4 0.1 117 -999
2012-04-16 06:03:38 51°13.636 2°56.02 125.4 0.1 105 -999
2012-04-16 06:03:42 51°13.636 2°56.02 125.4 -999 115 -999
2012-04-16 06:03:47 51°13.636 2°56.02 125.4 0.1 105 -999
2012-04-16 06:03:52 51°13.636 2°56.02 125.4 0.1 120 -999
2012-04-16 06:03:57 51°13.636 2°56.02 125.4 -999 340 -999
2012-04-16 06:04:02 51°13.636 2°56.02 125.4 0.1 117 -999
2012-04-16 06:04:08 51°13.636 2°56.021 125.4 0.1 92 -999
2012-04-16 06:04:13 51°13.636 2°56.021 125.4 0.2 122 -999
2012-04-16 06:04:17 51°13.636 2°56.021 125.3 0.1 118 -999
2012-04-16 06:04:22 51°13.636 2°56.02 125.3 0.2 131 -999
2012-04-16 06:04:27 51°13.636 2°56.021 125.3 0.2 131 -999
2012-04-16 06:04:32 51°13.636 2°56.02 125.3 0.1 143 -999
2012-04-16 06:04:37 51°13.636 2°56.02 125.3 -999 149 -999
2012-04-16 06:04:42 51°13.636 2°56.021 125.3 0.1 123 -999
2012-04-16 06:04:47 51°13.636 2°56.02 125.3 0.1 316 -999
2012-04-16 06:04:53 51°13.636 2°56.02 125.3 0.1 309 -999
2012-04-16 06:04:58 51°13.636 2°56.02 125.3 0.1 320 -999
2012-04-16 06:05:03 51°13.636 2°56.02 125.3 0.1 95 -999
2012-04-16 06:05:08 51°13.636 2°56.02 125.3 0.1 112 -999
2012-04-16 06:05:13 51°13.636 2°56.02 125.3 0.1 102 -999
2012-04-16 06:05:18 51°13.636 2°56.02 125.3 0.1 123 -999
2012-04-16 06:05:23 51°13.636 2°56.02 125.3 0.1 127 -999
2012-04-16 06:05:28 51°13.636 2°56.02 125.3 -999 136 -999
2012-04-16 06:05:33 51°13.637 2°56.02 125.3 0.1 324 -999
2012-04-16 06:05:38 51°13.637 2°56.02 125.4 -999 114 -999
2012-04-16 06:05:42 51°13.637 2°56.02 125.3 0.1 312 -999
2012-04-16 06:05:48 51°13.637 2°56.019 125.3 0.1 310 -999
2012-04-16 06:05:52 51°13.637 2°56.019 125.3 0.1 300 -999
2012-04-16 06:05:58 51°13.637 2°56.019 125.3 0.1 300 -999
2012-04-16 06:06:02 51°13.637 2°56.019 125.3 -999 142 -999
2012-04-16 06:06:07 51°13.637 2°56.019 125.3 0.1 306 -999
2012-04-16 06:06:12 51°13.637 2°56.02 125.3 -999 181 -999
2012-04-16 06:06:17 51°13.637 2°56.019 125.3 0.1 337 -999
2012-04-16 06:06:23 51°13.637 2°56.019 125.3 0.1 282 -999
2012-04-16 06:06:28 51°13.636 2°56.019 125.3 0.1 70 -999
2012-04-16 06:06:33 51°13.636 2°56.019 125.3 0.1 101 -999
2012-04-16 06:06:38 51°13.636 2°56.019 125.3 0.1 75 -999
2012-04-16 06:06:43 51°13.636 2°56.019 125.3 0.1 325 -999
2012-04-16 06:06:47 51°13.637 2°56.019 125.3 0.2 315 -999
2012-04-16 06:06:52 51°13.637 2°56.019 125.3 -999 151 -999
2012-04-16 06:06:57 51°13.637 2°56.02 125.3 0.2 122 -999
2012-04-16 06:07:03 51°13.637 2°56.019 125.3 -999 338 -999
2012-04-16 06:07:08 51°13.638 2°56.018 125.3 0.4 318 -999
2012-04-16 06:07:13 51°13.637 2°56.02 125.3 0.1 111 -999
2012-04-16 06:07:18 51°13.637 2°56.02 125.3 0.1 138 -999
2012-04-16 06:07:22 51°13.637 2°56.02 125.3 0.1 308 -999
2012-04-16 06:07:27 51°13.637 2°56.019 125.3 -999 304 -999
2012-04-16 06:07:32 51°13.637 2°56.019 125.3 0.1 90 -999
2012-04-16 06:07:37 51°13.637 2°56.02 125.3 -999 263 -999
2012-04-16 06:07:42 51°13.637 2°56.02 125.3 -999 295 -999
2012-04-16 06:07:47 51°13.638 2°56.02 125.3 0.2 291 -999
2012-04-16 06:07:50 51°13.638 2°56.019 -999 0.5 295 -999
2012-04-16 06:07:57 51°13.637 2°56.02 125.2 0.1 168 -999
2012-04-16 06:08:02 51°13.636 2°56.02 125.2 -999 188 -999
2012-04-16 06:08:07 51°13.636 2°56.019 125.2 0.2 310 -999
2012-04-16 06:08:13 51°13.636 2°56.019 125.3 0.1 298 -999
2012-04-16 06:08:18 51°13.636 2°56.02 125.4 -999 153 -999
2012-04-16 06:08:23 51°13.636 2°56.02 125.4 -999 202 -999
2012-04-16 06:08:28 51°13.636 2°56.019 125.4 0.1 301 -999
2012-04-16 06:08:33 51°13.636 2°56.019 125.4 0.1 319 -999
2012-04-16 06:08:38 51°13.636 2°56.019 125.3 0.2 291 -999
2012-04-16 06:08:43 51°13.637 2°56.019 125.3 0.2 286 -999
2012-04-16 06:08:48 51°13.637 2°56.019 125.3 0.2 290 -999
2012-04-16 06:08:52 51°13.637 2°56.018 125.3 0.4 314 -999
2012-04-16 06:08:57 51°13.636 2°56.019 125.3 0.1 238 -999
2012-04-16 06:09:02 51°13.636 2°56.019 125.3 0.1 71 -999
2012-04-16 06:09:07 51°13.636 2°56.019 125.3 0.1 278 -999
2012-04-16 06:09:12 51°13.636 2°56.019 125.3 -999 326 -999
2012-04-16 06:09:17 51°13.636 2°56.019 125.3 0.1 133 -999
2012-04-16 06:09:22 51°13.636 2°56.02 125.3 0.2 139 -999
2012-04-16 06:09:27 51°13.636 2°56.019 125.3 0.1 155 -999
2012-04-16 06:09:33 51°13.637 2°56.019 125.3 0.1 155 -999
2012-04-16 06:09:38 51°13.637 2°56.018 125.3 0.3 323 -999
2012-04-16 06:09:42 51°13.637 2°56.018 125.3 0.2 329 -999
2012-04-16 06:09:47 51°13.637 2°56.019 125.4 -999 304 -999
2012-04-16 06:09:52 51°13.636 2°56.018 125.4 0.1 305 -999
2012-04-16 06:09:57 51°13.636 2°56.018 125.4 0.1 3 -999
2012-04-16 06:10:02 51°13.636 2°56.018 125.4 -999 188 -999
2012-04-16 06:10:07 51°13.636 2°56.019 125.4 -999 92 -999
2012-04-16 06:10:13 51°13.636 2°56.018 125.4 -999 278 -999
2012-04-16 06:10:18 51°13.636 2°56.019 125.4 -999 292 -999
2012-04-16 06:10:22 51°13.636 2°56.018 125.4 0.1 304 -999
2012-04-16 06:10:27 51°13.636 2°56.018 125.4 0.1 333 -999
2012-04-16 06:10:32 51°13.635 2°56.019 125.4 0.2 122 -999
2012-04-16 06:10:37 51°13.635 2°56.019 125.4 0.2 113 -999
2012-04-16 06:10:43 51°13.635 2°56.019 125.4 0.1 125 -999
2012-04-16 06:10:47 51°13.635 2°56.019 125.4 0.2 109 -999
2012-04-16 06:10:51 51°13.635 2°56.019 125.4 0.3 120 -999
2012-04-16 06:10:57 51°13.635 2°56.019 125.4 0.2 122 -999
2012-04-16 06:11:02 51°13.636 2°56.018 125.4 0.1 258 -999
2012-04-16 06:11:08 51°13.636 2°56.018 125.4 -999 315 -999
2012-04-16 06:11:12 51°13.636 2°56.018 125.4 -999 217 -999
2012-04-16 06:11:17 51°13.636 2°56.018 125.4 0.1 338 -999
2012-04-16 06:11:22 51°13.636 2°56.018 125.4 -999 311 -999
2012-04-16 06:11:28 51°13.636 2°56.019 125.4 -999 123 -999
2012-04-16 06:11:32 51°13.636 2°56.018 125.3 -999 202 -999
2012-04-16 06:11:37 51°13.636 2°56.019 125.3 0.1 99 -999
2012-04-16 06:11:42 51°13.636 2°56.019 125.3 0.2 127 -999
2012-04-16 06:11:47 51°13.636 2°56.019 125.2 0.1 116 -999
2012-04-16 06:11:52 51°13.636 2°56.019 125.2 0.1 149 -999
2012-04-16 06:11:57 51°13.636 2°56.019 125.2 0.1 120 -999
2012-04-16 06:12:02 51°13.635 2°56.019 125.2 0.2 116 -999
2012-04-16 06:12:07 51°13.635 2°56.019 125.2 0.2 121 -999
2012-04-16 06:12:12 51°13.636 2°56.018 125.2 -999 282 -999
2012-04-16 06:12:18 51°13.636 2°56.018 125.2 0.4 304 -999
2012-04-16 06:12:22 51°13.635 2°56.019 125.2 0.1 84 -999
2012-04-16 06:12:28 51°13.635 2°56.018 125.2 -999 302 -999
2012-04-16 06:12:32 51°13.635 2°56.018 125.3 0.1 287 -999
2012-04-16 06:12:38 51°13.635 2°56.019 125.3 -999 326 -999
2012-04-16 06:12:42 51°13.635 2°56.019 125.3 -999 161 -999
2012-04-16 06:12:47 51°13.635 2°56.018 125.3 -999 300 -999
2012-04-16 06:12:52 51°13.636 2°56.018 125.3 0.1 281 -999
2012-04-16 06:12:57 51°13.636 2°56.017 125.3 0.4 309 -999
2012-04-16 06:13:02 51°13.635 2°56.019 125.3 0.1 116 -999
2012-04-16 06:13:07 51°13.635 2°56.019 125.3 0.1 141 -999
2012-04-16 06:13:13 51°13.635 2°56.019 125.3 0.2 288 -999
2012-04-16 06:13:18 51°13.636 2°56.019 125.2 -999 291 -999
2012-04-16 06:13:22 51°13.636 2°56.018 125.2 0.2 301 -999
2012-04-16 06:13:27 51°13.635 2°56.019 125.2 0.2 121 -999
2012-04-16 06:13:33 51°13.635 2°56.02 125.2 0.2 126 -999
2012-04-16 06:13:37 51°13.635 2°56.019 125.2 0.1 151 -999
2012-04-16 06:13:42 51°13.635 2°56.019 125.2 0.1 134 -999
2012-04-16 06:13:47 51°13.636 2°56.019 125.2 0.1 122 -999
2012-04-16 06:13:52 51°13.636 2°56.019 125.2 0.1 335 -999
2012-04-16 06:13:57 51°13.636 2°56.019 125.2 -999 302 -999
2012-04-16 06:14:02 51°13.636 2°56.019 125.2 0.2 118 -999
2012-04-16 06:14:07 51°13.636 2°56.019 125.2 0.1 133 -999
2012-04-16 06:14:13 51°13.636 2°56.019 125.2 -999 250 -999
2012-04-16 06:14:17 51°13.635 2°56.019 125.2 0.2 116 -999
2012-04-16 06:14:23 51°13.636 2°56.019 125.2 0.1 122 -999
2012-04-16 06:14:28 51°13.636 2°56.019 125.2 0.1 113 -999
2012-04-16 06:14:32 51°13.636 2°56.019 125.1 0.1 117 -999
2012-04-16 06:14:38 51°13.636 2°56.019 125 -999 212 -999
2012-04-16 06:14:43 51°13.636 2°56.018 125 0.1 297 -999
2012-04-16 06:14:48 51°13.636 2°56.019 125 -999 150 -999
2012-04-16 06:14:52 51°13.636 2°56.019 125 0.1 161 -999
2012-04-16 06:14:57 51°13.636 2°56.019 125 0.1 135 -999
2012-04-16 06:15:03 51°13.634 2°56.018 125.1 0.3 131 -999
2012-04-16 06:15:07 51°13.633 2°56.018 125.1 0.2 124 -999
2012-04-16 06:15:12 51°13.633 2°56.018 125.1 0.2 131 -999
2012-04-16 06:15:17 51°13.634 2°56.017 125.1 -999 38 -999
2012-04-16 06:15:22 51°13.634 2°56.018 125.1 0.1 179 -999
2012-04-16 06:15:28 51°13.634 2°56.018 125 0.1 114 -999
2012-04-16 06:15:32 51°13.635 2°56.019 125 0.1 153 -999
2012-04-16 06:15:37 51°13.635 2°56.018 125 -999 320 -999
2012-04-16 06:15:42 51°13.635 2°56.018 125 -999 332 -999
2012-04-16 06:15:48 51°13.635 2°56.018 125 -999 342 -999
2012-04-16 06:15:52 51°13.635 2°56.018 125 -999 286 -999
2012-04-16 06:15:57 51°13.634 2°56.018 125 0.1 119 -999
2012-04-16 06:16:02 51°13.634 2°56.017 125 0.1 143 -999
2012-04-16 06:16:07 51°13.634 2°56.017 125.1 0.2 312 -999
2012-04-16 06:16:12 51°13.633 2°56.017 125.1 0.1 35 -999
2012-04-16 06:16:17 51°13.633 2°56.017 125.1 0.1 103 -999
2012-04-16 06:16:22 51°13.634 2°56.017 125.1 -999 282 -999
2012-04-16 06:16:27 51°13.634 2°56.017 125 0.2 307 -999
2012-04-16 06:16:32 51°13.634 2°56.017 125 0.1 297 -999
2012-04-16 06:16:37 51°13.634 2°56.017 125 -999 116 -999
2012-04-16 06:16:43 51°13.633 2°56.018 125 0.2 119 -999
2012-04-16 06:16:47 51°13.634 2°56.017 125 0.1 342 -999
2012-04-16 06:16:52 51°13.634 2°56.017 124.9 0.1 312 -999
2012-04-16 06:16:57 51°13.633 2°56.018 124.9 0.3 128 -999
2012-04-16 06:17:02 51°13.633 2°56.018 124.9 0.2 135 -999
2012-04-16 06:17:07 51°13.633 2°56.018 124.9 0.1 118 -999
2012-04-16 06:17:12 51°13.633 2°56.018 124.9 -999 186 -999
2012-04-16 06:17:17 51°13.633 2°56.018 124.9 -999 329 -999
2012-04-16 06:17:23 51°13.634 2°56.018 124.9 -999 280 -999
2012-04-16 06:17:27 51°13.634 2°56.019 124.9 0.1 116 -999
2012-04-16 06:17:32 51°13.634 2°56.019 124.9 -999 182 -999
2012-04-16 06:17:37 51°13.635 2°56.019 125 -999 11 -999
2012-04-16 06:17:42 51°13.635 2°56.019 125 -999 172 -999
2012-04-16 06:17:48 51°13.635 2°56.019 124.9 0.1 320 -999
2012-04-16 06:17:52 51°13.635 2°56.019 124.9 -999 123 -999
2012-04-16 06:17:57 51°13.635 2°56.019 124.9 -999 228 -999
2012-04-16 06:18:02 51°13.635 2°56.02 124.9 -999 268 -999
2012-04-16 06:18:08 51°13.636 2°56.02 124.9 -999 329 -999
2012-04-16 06:18:12 51°13.636 2°56.02 124.9 -999 323 -999
2012-04-16 06:18:17 51°13.636 2°56.02 124.9 -999 355 -999
2012-04-16 06:18:22 51°13.636 2°56.02 124.9 -999 106 -999
2012-04-16 06:18:27 51°13.636 2°56.02 124.9 -999 293 -999
2012-04-16 06:18:32 51°13.636 2°56.019 124.9 0.1 328 -999
2012-04-16 06:18:37 51°13.636 2°56.019 125 0.1 265 -999
2012-04-16 06:18:42 51°13.636 2°56.019 125 -999 311 -999
2012-04-16 06:18:47 51°13.635 2°56.02 125 0.4 122 -999
2012-04-16 06:18:52 51°13.636 2°56.019 125 0.2 141 -999
2012-04-16 06:18:57 51°13.636 2°56.019 125 -999 130 -999
2012-04-16 06:19:03 51°13.636 2°56.019 124.9 -999 260 -999
2012-04-16 06:19:07 51°13.636 2°56.019 124.9 0.2 139 -999
2012-04-16 06:19:12 51°13.636 2°56.019 124.9 0.1 162 -999
2012-04-16 06:19:17 51°13.636 2°56.019 124.9 0.2 297 -999
2012-04-16 06:19:22 51°13.636 2°56.019 124.9 -999 144 -999
2012-04-16 06:19:27 51°13.635 2°56.02 125 0.2 116 -999
2012-04-16 06:19:32 51°13.636 2°56.019 125 -999 16 -999
2012-04-16 06:19:37 51°13.635 2°56.02 125 0.2 122 -999
2012-04-16 06:19:43 51°13.636 2°56.02 125 0.1 123 -999
2012-04-16 06:19:47 51°13.636 2°56.02 125 -999 108 -999
2012-04-16 06:19:52 51°13.636 2°56.02 125 0.1 124 -999
2012-04-16 06:19:57 51°13.635 2°56.02 125 0.1 127 -999
2012-04-16 06:20:02 51°13.635 2°56.02 125.1 0.1 149 -999
2012-04-16 06:20:08 51°13.636 2°56.019 125.1 0.1 224 -999
2012-04-16 06:20:12 51°13.636 2°56.019 125.1 0.3 301 -999
2012-04-16 06:20:17 51°13.635 2°56.019 125.1 0.1 101 -999
2012-04-16 06:20:22 51°13.635 2°56.019 125 0.1 109 -999
2012-04-16 06:20:28 51°13.635 2°56.019 124.9 0.1 144 -999
2012-04-16 06:20:32 51°13.635 2°56.019 124.9 0.1 166 -999
2012-04-16 06:20:37 51°13.635 2°56.018 124.9 0.1 320 -999
2012-04-16 06:20:42 51°13.635 2°56.018 124.9 -999 321 -999
2012-04-16 06:20:47 51°13.635 2°56.019 124.9 0.1 121 -999
2012-04-16 06:20:52 51°13.635 2°56.019 124.9 -999 73 -999
2012-04-16 06:20:57 51°13.635 2°56.019 124.9 -999 132 -999
2012-04-16 06:21:02 51°13.635 2°56.019 124.9 0.1 142 -999
2012-04-16 06:21:07 51°13.635 2°56.019 124.9 -999 195 -999
2012-04-16 06:21:12 51°13.635 2°56.019 124.9 0.1 65 -999
2012-04-16 06:21:17 51°13.635 2°56.019 124.9 0.1 288 -999
2012-04-16 06:21:23 51°13.635 2°56.019 124.9 0.1 301 -999
2012-04-16 06:21:27 51°13.635 2°56.019 124.9 0.1 309 -999
2012-04-16 06:21:32 51°13.635 2°56.019 124.9 0.1 327 -999
2012-04-16 06:21:37 51°13.635 2°56.019 125 0.1 267 -999
2012-04-16 06:21:42 51°13.635 2°56.019 125 0.1 340 -999
2012-04-16 06:21:47 51°13.635 2°56.02 125 0.1 126 -999
2012-04-16 06:21:52 51°13.635 2°56.019 125 0.1 312 -999
2012-04-16 06:21:57 51°13.635 2°56.02 125 0.1 169 -999
2012-04-16 06:22:03 51°13.636 2°56.019 125 0.3 315 -999
2012-04-16 06:22:08 51°13.636 2°56.018 125 0.5 309 -999
2012-04-16 06:22:12 51°13.635 2°56.018 125 0.3 322 -999
2012-04-16 06:22:17 51°13.634 2°56.019 125 0.1 130 -999
2012-04-16 06:22:22 51°13.635 2°56.019 125 -999 353 -999
2012-04-16 06:22:28 51°13.635 2°56.019 125 0.1 312 -999
2012-04-16 06:22:32 51°13.635 2°56.02 125 0.1 339 -999
2012-04-16 06:22:37 51°13.635 2°56.019 125 0.1 272 -999
2012-04-16 06:22:42 51°13.635 2°56.02 125 0.3 134 -999
2012-04-16 06:22:47 51°13.635 2°56.021 125 0.2 143 -999
2012-04-16 06:22:52 51°13.635 2°56.02 125 0.1 8 -999
2012-04-16 06:22:57 51°13.635 2°56.02 125 0.1 132 -999
2012-04-16 06:23:02 51°13.635 2°56.02 125 -999 75 -999
2012-04-16 06:23:07 51°13.635 2°56.02 125 -999 78 -999
2012-04-16 06:23:12 51°13.635 2°56.02 125 0.2 102 -999
2012-04-16 06:23:18 51°13.635 2°56.02 125 0.1 189 -999
2012-04-16 06:23:22 51°13.635 2°56.02 125 0.1 318 -999
2012-04-16 06:23:27 51°13.635 2°56.019 125 0.1 295 -999
2012-04-16 06:23:32 51°13.635 2°56.02 125 0.2 154 -999
2012-04-16 06:23:37 51°13.635 2°56.02 125 0.1 160 -999
2012-04-16 06:23:42 51°13.635 2°56.021 125 0.4 154 -999
2012-04-16 06:23:47 51°13.636 2°56.02 125 -999 151 -999
2012-04-16 06:23:52 51°13.635 2°56.019 125 -999 331 -999
2012-04-16 06:23:57 51°13.635 2°56.019 125 0.2 164 -999
2012-04-16 06:24:03 51°13.635 2°56.019 125 0.1 351 -999
2012-04-16 06:24:08 51°13.635 2°56.019 125 0.1 314 -999
2012-04-16 06:24:12 51°13.635 2°56.019 125 0.1 151 -999
2012-04-16 06:24:17 51°13.635 2°56.019 125 0.1 153 -999
2012-04-16 06:24:22 51°13.636 2°56.019 125 0.2 345 -999
2012-04-16 06:24:27 51°13.636 2°56.02 125 0.1 338 -999
2012-04-16 06:24:32 51°13.636 2°56.02 125 0.2 336 -999
2012-04-16 06:24:37 51°13.636 2°56.02 125 0.1 342 -999
2012-04-16 06:24:42 51°13.636 2°56.02 124.9 -999 340 -999
2012-04-16 06:24:48 51°13.635 2°56.02 124.9 0.1 147 -999
2012-04-16 06:24:52 51°13.635 2°56.02 124.9 -999 240 -999
2012-04-16 06:24:57 51°13.635 2°56.02 124.9 -999 141 -999
2012-04-16 06:25:02 51°13.636 2°56.02 124.9 -999 228 -999
2012-04-16 06:25:07 51°13.636 2°56.02 124.9 0.1 8 -999
2012-04-16 06:25:12 51°13.636 2°56.021 124.9 0.1 156 -999
2012-04-16 06:25:17 51°13.635 2°56.02 124.9 0.1 175 -999
2012-04-16 06:25:22 51°13.635 2°56.02 124.9 -999 349 -999
2012-04-16 06:25:27 51°13.636 2°56.02 124.9 -999 159 -999
2012-04-16 06:25:32 51°13.635 2°56.02 124.9 0.1 150 -999
2012-04-16 06:25:37 51°13.635 2°56.02 124.9 0.1 175 -999
2012-04-16 06:25:42 51°13.635 2°56.019 125 0.1 48 -999
2012-04-16 06:25:47 51°13.635 2°56.02 125 0.1 126 -999
2012-04-16 06:25:52 51°13.635 2°56.019 125 0.1 138 -999
2012-04-16 06:25:58 51°13.634 2°56.019 125 0.1 184 -999
2012-04-16 06:26:03 51°13.634 2°56.019 125 -999 215 -999
2012-04-16 06:26:07 51°13.635 2°56.018 125 0.2 331 -999
2012-04-16 06:26:12 51°13.634 2°56.019 125 0.1 322 -999
2012-04-16 06:26:17 51°13.635 2°56.019 125.1 -999 145 -999
2012-04-16 06:26:23 51°13.635 2°56.019 125.2 0.1 339 -999
2012-04-16 06:26:27 51°13.635 2°56.019 125.2 0.1 167 -999
2012-04-16 06:26:32 51°13.635 2°56.019 125.2 0.1 173 -999
2012-04-16 06:26:37 51°13.635 2°56.019 125.2 0.2 325 -999
2012-04-16 06:26:42 51°13.635 2°56.019 125.2 0.1 298 -999
2012-04-16 06:26:48 51°13.635 2°56.019 125.3 0.1 168 -999
2012-04-16 06:26:52 51°13.635 2°56.019 125.3 0.1 353 -999
2012-04-16 06:26:57 51°13.635 2°56.019 125.2 0.1 211 -999
2012-04-16 06:27:02 51°13.635 2°56.019 125.2 0.1 110 -999
2012-04-16 06:27:08 51°13.635 2°56.019 125.2 -999 160 -999
2012-04-16 06:27:12 51°13.635 2°56.019 125.2 0.2 356 -999
2012-04-16 06:27:17 51°13.635 2°56.019 125.2 0.1 312 -999
2012-04-16 06:27:22 51°13.635 2°56.018 125.1 0.2 340 -999
2012-04-16 06:27:27 51°13.635 2°56.019 125 -999 218 -999
2012-04-16 06:27:32 51°13.636 2°56.019 125 0.1 352 -999
2012-04-16 06:27:37 51°13.635 2°56.019 125 0.2 160 -999
2012-04-16 06:27:42 51°13.636 2°56.019 125 -999 23 -999
2012-04-16 06:27:47 51°13.636 2°56.019 125.1 0.1 158 -999
2012-04-16 06:27:52 51°13.635 2°56.019 125.3 -999 150 -999
2012-04-16 06:27:58 51°13.635 2°56.019 125.3 -999 322 -999
2012-04-16 06:28:02 51°13.635 2°56.018 125.3 0.1 335 -999
2012-04-16 06:28:07 51°13.635 2°56.019 125.3 0.1 337 -999
2012-04-16 06:28:12 51°13.635 2°56.019 125.3 0.1 150 -999
2012-04-16 06:28:17 51°13.635 2°56.019 125.3 -999 6 -999
2012-04-16 06:28:23 51°13.635 2°56.019 125.3 -999 309 -999
2012-04-16 06:28:27 51°13.635 2°56.019 125.2 0.1 328 -999
2012-04-16 06:28:32 51°13.635 2°56.019 125.3 0.1 171 -999
2012-04-16 06:28:37 51°13.635 2°56.019 125.4 -999 97 -999
2012-04-16 06:28:43 51°13.636 2°56.019 125.4 0.1 335 -999
2012-04-16 06:28:47 51°13.636 2°56.019 125.4 0.2 339 -999
2012-04-16 06:28:52 51°13.636 2°56.019 125.4 -999 105 -999
2012-04-16 06:28:57 51°13.636 2°56.019 125.4 -999 74 -999
2012-04-16 06:29:02 51°13.636 2°56.019 125.4 -999 192 -999
2012-04-16 06:29:08 51°13.636 2°56.019 125.5 0.2 337 -999
2012-04-16 06:29:12 51°13.636 2°56.019 125.6 0.1 358 -999
2012-04-16 06:29:17 51°13.636 2°56.02 125.7 0.1 76 -999
2012-04-16 06:29:22 51°13.636 2°56.02 125.8 0.1 110 -999
2012-04-16 06:29:27 51°13.636 2°56.02 125.8 -999 181 -999
2012-04-16 06:29:32 51°13.636 2°56.02 125.7 -999 308 -999
2012-04-16 06:29:37 51°13.636 2°56.02 125.7 0.1 166 -999
2012-04-16 06:29:42 51°13.636 2°56.02 125.7 -999 255 -999
2012-04-16 06:29:47 51°13.636 2°56.02 125.7 0.1 270 -999
2012-04-16 06:29:52 51°13.637 2°56.02 125.7 0.1 325 -999
2012-04-16 06:29:57 51°13.636 2°56.02 125.9 0.1 206 -999
2012-04-16 06:30:02 51°13.636 2°56.02 126.2 0.1 60 -999
2012-04-16 06:30:07 51°13.637 2°56.02 126.1 0.1 299 -999
2012-04-16 06:30:12 51°13.637 2°56.02 125.7 0.1 3 -999
2012-04-16 06:30:18 51°13.636 2°56.02 125.3 0.2 160 -999
2012-04-16 06:30:23 51°13.637 2°56.02 125.2 0.1 340 -999
2012-04-16 06:30:27 51°13.637 2°56.019 125.2 0.4 329 -999
2012-04-16 06:30:32 51°13.637 2°56.02 125.3 0.1 329 -999
2012-04-16 06:30:37 51°13.637 2°56.019 125.5 0.3 336 -999
2012-04-16 06:30:42 51°13.638 2°56.019 125.5 0.4 332 -999
2012-04-16 06:30:47 51°13.637 2°56.02 125.5 0.2 333 -999
2012-04-16 06:30:52 51°13.636 2°56.02 125.3 -999 263 -999
2012-04-16 06:30:57 51°13.637 2°56.02 125.3 0.1 334 -999
2012-04-16 06:31:03 51°13.637 2°56.02 125.3 0.2 331 -999
2012-04-16 06:31:08 51°13.636 2°56.02 125.3 0.1 163 -999
2012-04-16 06:31:12 51°13.636 2°56.02 125.3 0.2 149 -999
2012-04-16 06:31:17 51°13.636 2°56.02 125.2 -999 168 -999
2012-04-16 06:31:22 51°13.636 2°56.02 125.2 0.1 337 -999
2012-04-16 06:31:28 51°13.637 2°56.02 125.2 -999 349 -999
2012-04-16 06:31:32 51°13.636 2°56.02 125.2 -999 52 -999
2012-04-16 06:31:37 51°13.636 2°56.02 125.2 0.3 150 -999
2012-04-16 06:31:42 51°13.636 2°56.02 125.2 0.1 150 -999
2012-04-16 06:31:47 51°13.636 2°56.019 125.2 -999 19 -999
2012-04-16 06:31:52 51°13.636 2°56.02 125.2 0.1 22 -999
2012-04-16 06:31:57 51°13.637 2°56.019 125.2 0.2 340 -999
2012-04-16 06:32:02 51°13.637 2°56.02 125.2 -999 355 -999
2012-04-16 06:32:07 51°13.636 2°56.02 125.2 0.2 160 -999
2012-04-16 06:32:12 51°13.636 2°56.019 125.2 0.1 325 -999
2012-04-16 06:32:18 51°13.636 2°56.02 125.2 -999 313 -999
2012-04-16 06:32:22 51°13.636 2°56.019 125.2 0.1 143 -999
2012-04-16 06:32:27 51°13.636 2°56.02 125.2 0.2 149 -999
2012-04-16 06:32:32 51°13.637 2°56.019 125.1 -999 234 -999
2012-04-16 06:32:37 51°13.637 2°56.019 125.1 0.1 342 -999
2012-04-16 06:32:42 51°13.636 2°56.019 125.1 0.1 161 -999
2012-04-16 06:32:47 51°13.636 2°56.019 125.1 0.1 330 -999
2012-04-16 06:32:52 51°13.637 2°56.019 125.1 0.2 329 -999
2012-04-16 06:32:57 51°13.636 2°56.019 125 0.1 325 -999
2012-04-16 06:33:02 51°13.636 2°56.019 125 0.1 315 -999
2012-04-16 06:33:07 51°13.636 2°56.019 125 -999 201 -999
2012-04-16 06:33:12 51°13.636 2°56.019 125 -999 303 -999
2012-04-16 06:33:17 51°13.637 2°56.018 125 0.1 333 -999
2012-04-16 06:33:22 51°13.636 2°56.018 125 -999 348 -999
2012-04-16 06:33:27 51°13.637 2°56.018 125.1 0.1 346 -999
2012-04-16 06:33:32 51°13.637 2°56.018 125.1 -999 31 -999
2012-04-16 06:33:37 51°13.637 2°56.018 125.1 0.1 325 -999
2012-04-16 06:33:42 51°13.637 2°56.018 125.1 0.1 344 -999
2012-04-16 06:33:47 51°13.637 2°56.019 125.1 0.1 156 -999
2012-04-16 06:33:52 51°13.636 2°56.019 125.1 0.1 142 -999
2012-04-16 06:33:57 51°13.636 2°56.019 125.2 0.1 177 -999
2012-04-16 06:34:02 51°13.636 2°56.019 125.2 0.1 154 -999
2012-04-16 06:34:07 51°13.636 2°56.019 125.2 0.1 142 -999
2012-04-16 06:34:12 51°13.637 2°56.019 125.3 0.1 129 -999
2012-04-16 06:34:17 51°13.637 2°56.019 125.3 0.1 143 -999
2012-04-16 06:34:22 51°13.637 2°56.019 125.4 -999 346 -999
2012-04-16 06:34:27 51°13.637 2°56.018 125.4 0.1 334 -999
2012-04-16 06:34:32 51°13.637 2°56.019 125.4 0.1 152 -999
2012-04-16 06:34:37 51°13.637 2°56.019 125.4 -999 291 -999
2012-04-16 06:34:42 51°13.637 2°56.019 125.4 0.1 332 -999
2012-04-16 06:34:47 51°13.637 2°56.019 125.3 0.1 164 -999
2012-04-16 06:34:52 51°13.637 2°56.019 125.2 -999 203 -999
2012-04-16 06:34:58 51°13.637 2°56.019 125.2 -999 337 -999
2012-04-16 06:35:03 51°13.637 2°56.018 125.2 0.2 330 -999
2012-04-16 06:35:07 51°13.636 2°56.019 125.3 0.4 149 -999
2012-04-16 06:35:12 51°13.636 2°56.019 125.3 0.2 153 -999
2012-04-16 06:35:17 51°13.636 2°56.019 125.3 0.2 151 -999
2012-04-16 06:35:22 51°13.636 2°56.019 125.3 0.1 148 -999
2012-04-16 06:35:27 51°13.636 2°56.019 125.3 0.1 143 -999
2012-04-16 06:35:32 51°13.636 2°56.019 125.3 0.1 343 -999
2012-04-16 06:35:37 51°13.636 2°56.019 125.3 -999 53 -999
2012-04-16 06:35:42 51°13.636 2°56.019 125.2 0.1 145 -999
2012-04-16 06:35:48 51°13.636 2°56.019 125.1 0.1 350 -999
2012-04-16 06:35:52 51°13.636 2°56.019 125 0.1 328 -999
2012-04-16 06:35:57 51°13.636 2°56.019 124.9 0.1 329 -999
2012-04-16 06:36:02 51°13.636 2°56.019 124.9 -999 263 -999
2012-04-16 06:36:07 51°13.636 2°56.019 124.9 0.1 327 -999
2012-04-16 06:36:12 51°13.636 2°56.019 124.9 0.1 332 -999
2012-04-16 06:36:17 51°13.635 2°56.019 124.9 0.1 165 -999
2012-04-16 06:36:22 51°13.636 2°56.019 124.9 -999 164 -999
2012-04-16 06:36:27 51°13.635 2°56.019 124.9 0.2 156 -999
2012-04-16 06:36:32 51°13.635 2°56.019 124.9 0.1 167 -999
2012-04-16 06:36:37 51°13.635 2°56.019 125 0.1 157 -999
2012-04-16 06:36:42 51°13.635 2°56.019 125 -999 318 -999
2012-04-16 06:36:47 51°13.636 2°56.019 125 0.3 333 -999
2012-04-16 06:36:52 51°13.635 2°56.019 125 -999 47 -999
2012-04-16 06:36:58 51°13.636 2°56.019 125 0.2 333 -999
2012-04-16 06:37:02 51°13.635 2°56.019 125 0.1 141 -999
2012-04-16 06:37:07 51°13.635 2°56.019 125 0.1 128 -999
2012-04-16 06:37:12 51°13.635 2°56.019 125 -999 21 -999
2012-04-16 06:37:17 51°13.635 2°56.019 125 0.1 140 -999
2012-04-16 06:37:23 51°13.635 2°56.019 125 -999 329 -999
2012-04-16 06:37:27 51°13.635 2°56.019 124.9 0.1 337 -999
2012-04-16 06:37:32 51°13.635 2°56.019 124.9 -999 145 -999
2012-04-16 06:37:37 51°13.636 2°56.019 124.9 0.1 345 -999
2012-04-16 06:37:42 51°13.636 2°56.019 124.9 0.3 327 -999
2012-04-16 06:37:47 51°13.636 2°56.018 124.9 0.3 331 -999
2012-04-16 06:37:52 51°13.636 2°56.018 124.9 0.3 326 -999
2012-04-16 06:37:57 51°13.636 2°56.019 124.9 -999 279 -999
2012-04-16 06:38:02 51°13.635 2°56.019 124.9 0.2 156 -999
2012-04-16 06:38:08 51°13.635 2°56.019 124.9 0.2 154 -999
2012-04-16 06:38:12 51°13.635 2°56.019 125 0.1 154 -999
2012-04-16 06:38:17 51°13.635 2°56.019 125.1 -999 215 -999
2012-04-16 06:38:22 51°13.635 2°56.019 125.2 -999 204 -999
2012-04-16 06:38:27 51°13.635 2°56.02 125.2 0.4 150 -999
2012-04-16 06:38:32 51°13.635 2°56.019 125.2 0.1 124 -999
2012-04-16 06:38:37 51°13.635 2°56.019 125.2 0.1 159 -999
2012-04-16 06:38:42 51°13.635 2°56.019 125.1 0.1 169 -999
2012-04-16 06:38:47 51°13.635 2°56.019 125.1 0.2 325 -999
2012-04-16 06:38:52 51°13.636 2°56.019 125.1 0.3 331 -999
2012-04-16 06:38:57 51°13.635 2°56.019 125.1 0.1 185 -999
2012-04-16 06:39:02 51°13.635 2°56.019 125.2 -999 299 -999
2012-04-16 06:39:07 51°13.635 2°56.019 125.2 0.2 331 -999
2012-04-16 06:39:12 51°13.635 2°56.019 125.2 0.2 149 -999
2012-04-16 06:39:17 51°13.635 2°56.019 125.1 0.4 151 -999
2012-04-16 06:39:23 51°13.636 2°56.019 125.1 0.1 348 -999
2012-04-16 06:39:27 51°13.636 2°56.019 125.1 0.1 336 -999
2012-04-16 06:39:32 51°13.635 2°56.019 125.1 0.1 145 -999
2012-04-16 06:39:37 51°13.635 2°56.019 125.1 0.1 185 -999
2012-04-16 06:39:42 51°13.636 2°56.019 125.1 0.2 331 -999
2012-04-16 06:39:47 51°13.636 2°56.019 125.1 0.1 127 -999
2012-04-16 06:39:52 51°13.636 2°56.019 125.1 0.1 132 -999
2012-04-16 06:39:57 51°13.636 2°56.019 125.1 0.2 106 -999
2012-04-16 06:40:02 51°13.636 2°56.018 125.1 0.3 322 -999
2012-04-16 06:40:08 51°13.636 2°56.019 125.1 -999 13 -999
2012-04-16 06:40:12 51°13.635 2°56.02 125.1 0.3 124 -999
2012-04-16 06:40:17 51°13.635 2°56.019 125.1 0.2 164 -999
2012-04-16 06:40:22 51°13.636 2°56.019 125.1 -999 144 -999
2012-04-16 06:40:27 51°13.636 2°56.019 125.1 -999 34 -999
2012-04-16 06:40:32 51°13.636 2°56.019 125 -999 64 -999
2012-04-16 06:40:37 51°13.636 2°56.019 125 -999 81 -999
2012-04-16 06:40:42 51°13.636 2°56.019 124.9 0.1 227 -999
2012-04-16 06:40:47 51°13.636 2°56.019 124.9 -999 33 -999
2012-04-16 06:40:52 51°13.636 2°56.019 125 0.1 64 -999
2012-04-16 06:40:57 51°13.636 2°56.019 125 -999 141 -999
2012-04-16 06:41:02 51°13.636 2°56.019 125 -999 238 -999
2012-04-16 06:41:07 51°13.636 2°56.019 125 -999 51 -999
2012-04-16 06:41:12 51°13.636 2°56.019 125 -999 107 -999
2012-04-16 06:41:18 51°13.636 2°56.019 125 -999 308 -999
2012-04-16 06:41:22 51°13.636 2°56.019 125 -999 264 -999
2012-04-16 06:41:27 51°13.636 2°56.019 125 -999 291 -999
2012-04-16 06:41:32 51°13.636 2°56.019 125 -999 70 -999
2012-04-16 06:41:37 51°13.636 2°56.019 125 -999 -999 -999
2012-04-16 06:41:42 51°13.636 2°56.019 125 -999 48 -999
2012-04-16 06:41:47 51°13.636 2°56.019 125 -999 104 -999
2012-04-16 06:41:52 51°13.636 2°56.019 125 -999 263 -999
2012-04-16 06:41:57 51°13.636 2°56.019 125 -999 244 -999
2012-04-16 06:42:03 51°13.636 2°56.019 125 -999 246 -999
2012-04-16 06:42:07 51°13.636 2°56.019 125 -999 96 -999
2012-04-16 06:42:12 51°13.636 2°56.019 125 0.2 45 -999
2012-04-16 06:42:17 51°13.636 2°56.019 125 -999 94 -999
2012-04-16 06:42:22 51°13.636 2°56.019 124.9 -999 329 -999
2012-04-16 06:42:27 51°13.636 2°56.019 124.9 0.1 50 -999
2012-04-16 06:42:32 51°13.636 2°56.019 124.9 0.1 83 -999
2012-04-16 06:42:37 51°13.636 2°56.019 124.9 0.1 77 -999
2012-04-16 06:42:42 51°13.636 2°56.018 124.9 -999 245 -999
2012-04-16 06:42:48 51°13.636 2°56.018 124.9 -999 14 -999
2012-04-16 06:42:52 51°13.636 2°56.018 124.9 0.1 63 -999
2012-04-16 06:42:57 51°13.636 2°56.019 124.9 0.1 115 -999
2012-04-16 06:43:02 51°13.636 2°56.018 124.9 0.1 230 -999
2012-04-16 06:43:07 51°13.636 2°56.018 124.9 0.1 227 -999
2012-04-16 06:43:12 51°13.636 2°56.018 124.9 -999 217 -999
2012-04-16 06:43:17 51°13.636 2°56.018 124.9 0.1 237 -999
2012-04-16 06:43:22 51°13.636 2°56.018 124.9 -999 298 -999
2012-04-16 06:43:27 51°13.636 2°56.019 124.9 -999 11 -999
2012-04-16 06:43:32 51°13.636 2°56.019 124.9 0.1 53 -999
2012-04-16 06:43:37 51°13.636 2°56.019 124.9 -999 70 -999
2012-04-16 06:43:42 51°13.636 2°56.019 125 -999 118 -999
2012-04-16 06:43:47 51°13.636 2°56.019 125 0.1 263 -999
2012-04-16 06:43:52 51°13.636 2°56.019 125 -999 48 -999
2012-04-16 06:43:57 51°13.636 2°56.019 125 -999 7 -999
2012-04-16 06:44:02 51°13.636 2°56.019 125 0.1 48 -999
2012-04-16 06:44:07 51°13.636 2°56.019 125.1 -999 76 -999
2012-04-16 06:44:12 51°13.636 2°56.019 125.1 -999 355 -999
2012-04-16 06:44:17 51°13.636 2°56.019 125.1 -999 37 -999
2012-04-16 06:44:22 51°13.636 2°56.019 125.1 0.1 236 -999
2012-04-16 06:44:27 51°13.636 2°56.019 125.1 0.1 3 -999
2012-04-16 06:44:32 51°13.636 2°56.019 125.1 0.2 67 -999
2012-04-16 06:44:37 51°13.636 2°56.019 125.2 -999 235 -999
2012-04-16 06:44:42 51°13.636 2°56.019 125.3 0.1 235 -999
2012-04-16 06:44:48 51°13.636 2°56.019 125.3 -999 328 -999
2012-04-16 06:44:52 51°13.636 2°56.019 125.3 0.1 62 -999
2012-04-16 06:44:57 51°13.636 2°56.019 125.3 -999 10 -999
2012-04-16 06:45:02 51°13.636 2°56.019 125.3 -999 191 -999
2012-04-16 06:45:07 51°13.636 2°56.019 125.3 -999 63 -999
2012-04-16 06:45:12 51°13.636 2°56.019 125.3 -999 135 -999
2012-04-16 06:45:17 51°13.636 2°56.019 125.3 -999 244 -999
2012-04-16 06:45:22 51°13.636 2°56.019 125.3 -999 98 -999
2012-04-16 06:45:27 51°13.636 2°56.019 125.3 -999 163 -999
2012-04-16 06:45:32 51°13.636 2°56.019 125.3 -999 221 -999
2012-04-16 06:45:37 51°13.636 2°56.02 125.3 -999 77 -999
2012-04-16 06:45:42 51°13.636 2°56.02 125.2 -999 134 -999
2012-04-16 06:45:47 51°13.636 2°56.019 125.2 -999 262 -999
2012-04-16 06:45:52 51°13.636 2°56.019 125.2 -999 303 -999
2012-04-16 06:45:58 51°13.636 2°56.02 125.2 -999 77 -999
2012-04-16 06:46:02 51°13.636 2°56.019 125.1 -999 213 -999
2012-04-16 06:46:07 51°13.636 2°56.02 125.1 -999 1 -999
2012-04-16 06:46:12 51°13.636 2°56.02 125 0.1 58 -999
2012-04-16 06:46:17 51°13.636 2°56.02 124.9 -999 205 -999
2012-04-16 06:46:23 51°13.636 2°56.019 124.9 -999 253 -999
2012-04-16 06:46:27 51°13.636 2°56.019 124.9 -999 196 -999
2012-04-16 06:46:32 51°13.636 2°56.019 125 -999 27 -999
2012-04-16 06:46:37 51°13.636 2°56.019 125 -999 46 -999
2012-04-16 06:46:42 51°13.636 2°56.019 125 -999 42 -999
2012-04-16 06:46:48 51°13.637 2°56.019 125 -999 269 -999
2012-04-16 06:46:52 51°13.636 2°56.019 125 0.1 227 -999
2012-04-16 06:46:57 51°13.636 2°56.019 124.9 -999 211 -999
2012-04-16 06:47:02 51°13.637 2°56.019 124.9 0.1 273 -999
2012-04-16 06:47:08 51°13.637 2°56.019 124.9 0.1 66 -999
2012-04-16 06:47:12 51°13.637 2°56.019 124.9 0.1 35 -999
2012-04-16 06:47:17 51°13.637 2°56.019 124.9 -999 79 -999
2012-04-16 06:47:22 51°13.637 2°56.019 124.8 -999 34 -999
2012-04-16 06:47:27 51°13.637 2°56.019 124.8 -999 345 -999
2012-04-16 06:47:32 51°13.637 2°56.019 124.8 0.1 44 -999
2012-04-16 06:47:37 51°13.637 2°56.019 124.8 0.1 48 -999
2012-04-16 06:47:42 51°13.637 2°56.019 124.8 -999 99 -999
2012-04-16 06:47:47 51°13.637 2°56.018 124.8 0.1 243 -999
2012-04-16 06:47:52 51°13.637 2°56.018 124.8 -999 354 -999
2012-04-16 06:47:57 51°13.637 2°56.018 124.8 0.1 224 -999
2012-04-16 06:48:02 51°13.636 2°56.018 124.8 0.1 247 -999
2012-04-16 06:48:07 51°13.636 2°56.018 124.8 0.1 258 -999
2012-04-16 06:48:12 51°13.637 2°56.018 124.8 0.1 281 -999
2012-04-16 06:48:17 51°13.637 2°56.018 124.8 -999 327 -999
2012-04-16 06:48:23 51°13.637 2°56.018 124.8 -999 328 -999
2012-04-16 06:48:27 51°13.637 2°56.018 124.8 -999 270 -999
2012-04-16 06:48:32 51°13.637 2°56.018 124.8 -999 241 -999
2012-04-16 06:48:37 51°13.637 2°56.018 124.8 -999 305 -999
2012-04-16 06:48:42 51°13.637 2°56.018 124.8 -999 287 -999
2012-04-16 06:48:47 51°13.637 2°56.018 124.8 -999 43 -999
2012-04-16 06:48:52 51°13.636 2°56.018 124.8 -999 13 -999
2012-04-16 06:48:57 51°13.636 2°56.018 124.8 -999 282 -999
2012-04-16 06:49:02 51°13.637 2°56.018 124.8 -999 52 -999
2012-04-16 06:49:08 51°13.637 2°56.018 124.8 -999 331 -999
2012-04-16 06:49:12 51°13.637 2°56.018 124.8 -999 348 -999
2012-04-16 06:49:17 51°13.637 2°56.018 124.8 -999 299 -999
2012-04-16 06:49:22 51°13.637 2°56.018 124.8 -999 194 -999
2012-04-16 06:49:27 51°13.637 2°56.018 124.8 -999 291 -999
2012-04-16 06:49:32 51°13.637 2°56.018 124.8 -999 31 -999
2012-04-16 06:49:37 51°13.637 2°56.018 124.8 -999 158 -999
2012-04-16 06:49:42 51°13.636 2°56.018 124.8 -999 230 -999
2012-04-16 06:49:47 51°13.636 2°56.018 124.8 0.1 266 -999
2012-04-16 06:49:52 51°13.636 2°56.018 124.8 -999 55 -999
2012-04-16 06:49:57 51°13.636 2°56.018 124.8 -999 268 -999
2012-04-16 06:50:02 51°13.636 2°56.018 124.8 -999 309 -999
2012-04-16 06:50:07 51°13.637 2°56.018 124.8 -999 31 -999
2012-04-16 06:50:12 51°13.636 2°56.018 124.8 -999 220 -999
2012-04-16 06:50:17 51°13.636 2°56.018 124.8 -999 289 -999
2012-04-16 06:50:22 51°13.636 2°56.018 124.8 -999 234 -999
2012-04-16 06:50:27 51°13.636 2°56.018 124.8 -999 267 -999
2012-04-16 06:50:32 51°13.636 2°56.018 124.8 -999 347 -999
2012-04-16 06:50:37 51°13.636 2°56.018 124.8 -999 60 -999
2012-04-16 06:50:42 51°13.636 2°56.018 124.9 -999 226 -999
2012-04-16 06:50:47 51°13.636 2°56.018 124.9 -999 47 -999
2012-04-16 06:50:52 51°13.636 2°56.018 124.9 -999 331 -999
2012-04-16 06:50:57 51°13.636 2°56.018 124.9 0.1 67 -999
2012-04-16 06:51:03 51°13.636 2°56.018 124.9 -999 39 -999
2012-04-16 06:51:08 51°13.636 2°56.018 124.9 -999 11 -999
2012-04-16 06:51:12 51°13.636 2°56.019 124.9 -999 72 -999
2012-04-16 06:51:17 51°13.636 2°56.019 124.9 -999 295 -999
2012-04-16 06:51:22 51°13.636 2°56.019 124.9 0.1 55 -999
2012-04-16 06:51:27 51°13.636 2°56.019 124.9 -999 246 -999
2012-04-16 06:51:32 51°13.636 2°56.019 124.9 -999 218 -999
2012-04-16 06:51:37 51°13.636 2°56.019 124.9 -999 260 -999
2012-04-16 06:51:42 51°13.636 2°56.019 124.9 -999 252 -999
2012-04-16 06:51:47 51°13.636 2°56.019 124.9 -999 24 -999
2012-04-16 06:51:52 51°13.636 2°56.019 124.9 -999 19 -999
2012-04-16 06:51:57 51°13.636 2°56.019 124.9 0.1 62 -999
2012-04-16 06:52:02 51°13.636 2°56.019 124.9 -999 58 -999
2012-04-16 06:52:07 51°13.636 2°56.019 124.9 -999 343 -999
2012-04-16 06:52:12 51°13.636 2°56.019 124.9 -999 49 -999
2012-04-16 06:52:17 51°13.636 2°56.019 124.9 -999 245 -999
2012-04-16 06:52:22 51°13.636 2°56.019 124.9 -999 96 -999
2012-04-16 06:52:27 51°13.635 2°56.019 124.9 -999 321 -999
2012-04-16 06:52:32 51°13.635 2°56.019 124.9 0.1 260 -999
2012-04-16 06:52:37 51°13.635 2°56.019 124.9 -999 34 -999
2012-04-16 06:52:42 51°13.635 2°56.019 124.9 0.1 56 -999
2012-04-16 06:52:47 51°13.635 2°56.019 124.9 -999 57 -999
2012-04-16 06:52:52 51°13.635 2°56.019 124.9 -999 83 -999
2012-04-16 06:52:58 51°13.635 2°56.019 124.9 -999 236 -999
2012-04-16 06:53:02 51°13.635 2°56.019 124.9 0.1 251 -999
2012-04-16 06:53:07 51°13.635 2°56.019 124.9 -999 286 -999
2012-04-16 06:53:12 51°13.635 2°56.019 124.8 -999 76 -999
2012-04-16 06:53:17 51°13.635 2°56.019 124.8 -999 254 -999
2012-04-16 06:53:23 51°13.635 2°56.019 124.8 -999 78 -999
2012-04-16 06:53:27 51°13.635 2°56.019 124.8 -999 288 -999
2012-04-16 06:53:32 51°13.635 2°56.019 124.8 -999 42 -999
2012-04-16 06:53:37 51°13.636 2°56.019 124.8 -999 70 -999
2012-04-16 06:53:42 51°13.635 2°56.019 124.8 -999 84 -999
2012-04-16 06:53:48 51°13.636 2°56.019 124.8 -999 293 -999
2012-04-16 06:53:52 51°13.635 2°56.019 124.8 -999 40 -999
2012-04-16 06:53:57 51°13.635 2°56.019 124.8 0.1 36 -999
2012-04-16 06:54:02 51°13.636 2°56.019 124.8 -999 74 -999
2012-04-16 06:54:07 51°13.636 2°56.019 124.8 -999 96 -999
2012-04-16 06:54:12 51°13.636 2°56.019 124.8 -999 259 -999
2012-04-16 06:54:17 51°13.636 2°56.019 124.8 -999 58 -999
2012-04-16 06:54:22 51°13.636 2°56.019 124.8 -999 63 -999
2012-04-16 06:54:27 51°13.636 2°56.019 124.8 -999 2 -999
2012-04-16 06:54:32 51°13.636 2°56.019 124.8 -999 108 -999
2012-04-16 06:54:37 51°13.636 2°56.019 124.8 0.1 217 -999
2012-04-16 06:54:42 51°13.636 2°56.019 124.8 -999 232 -999
2012-04-16 06:54:47 51°13.636 2°56.019 124.7 -999 242 -999
2012-04-16 06:54:52 51°13.636 2°56.019 124.7 -999 93 -999
2012-04-16 06:54:58 51°13.636 2°56.019 124.7 -999 349 -999
2012-04-16 06:55:02 51°13.636 2°56.019 124.7 -999 63 -999
2012-04-16 06:55:07 51°13.636 2°56.019 124.7 -999 12 -999
2012-04-16 06:55:12 51°13.636 2°56.019 124.7 -999 59 -999
2012-04-16 06:55:17 51°13.636 2°56.019 124.7 -999 21 -999
2012-04-16 06:55:23 51°13.636 2°56.019 124.7 0.1 52 -999
2012-04-16 06:55:27 51°13.636 2°56.019 124.8 0.1 51 -999
2012-04-16 06:55:32 51°13.636 2°56.019 124.8 -999 38 -999
2012-04-16 06:55:37 51°13.636 2°56.019 124.8 -999 32 -999
2012-04-16 06:55:42 51°13.636 2°56.019 124.8 -999 62 -999
2012-04-16 06:55:47 51°13.636 2°56.019 124.7 -999 50 -999
2012-04-16 06:55:52 51°13.636 2°56.019 124.7 -999 40 -999
2012-04-16 06:55:57 51°13.636 2°56.019 124.7 -999 54 -999
2012-04-16 06:56:02 51°13.636 2°56.019 124.6 -999 259 -999
2012-04-16 06:56:08 51°13.636 2°56.019 124.6 -999 69 -999
2012-04-16 06:56:12 51°13.636 2°56.019 124.7 -999 139 -999
2012-04-16 06:56:17 51°13.636 2°56.019 124.7 -999 226 -999
2012-04-16 06:56:22 51°13.636 2°56.018 124.7 -999 286 -999
2012-04-16 06:56:27 51°13.636 2°56.018 124.7 -999 105 -999
2012-04-16 06:56:32 51°13.636 2°56.018 124.8 0.1 224 -999
2012-04-16 06:56:37 51°13.636 2°56.018 124.8 0.1 251 -999
2012-04-16 06:56:42 51°13.636 2°56.018 124.8 0.1 262 -999
2012-04-16 06:56:47 51°13.636 2°56.018 124.8 -999 335 -999
2012-04-16 06:56:52 51°13.636 2°56.018 124.7 -999 61 -999
2012-04-16 06:56:57 51°13.636 2°56.018 124.7 -999 249 -999
2012-04-16 06:57:02 51°13.636 2°56.018 124.8 -999 304 -999
2012-04-16 06:57:07 51°13.636 2°56.018 124.8 -999 20 -999
2012-04-16 06:57:12 51°13.636 2°56.018 124.8 -999 64 -999
2012-04-16 06:57:17 51°13.636 2°56.018 124.8 -999 112 -999
2012-04-16 06:57:22 51°13.636 2°56.018 124.8 -999 50 -999
2012-04-16 06:57:27 51°13.636 2°56.018 124.9 -999 204 -999
2012-04-16 06:57:32 51°13.636 2°56.018 124.9 0.1 226 -999
2012-04-16 06:57:37 51°13.636 2°56.018 124.9 0.1 272 -999
2012-04-16 06:57:42 51°13.636 2°56.018 124.9 -999 73 -999
2012-04-16 06:57:47 51°13.636 2°56.018 124.9 -999 166 -999
2012-04-16 06:57:52 51°13.636 2°56.018 124.9 -999 146 -999
2012-04-16 06:57:57 51°13.636 2°56.018 124.9 -999 259 -999
2012-04-16 06:58:02 51°13.636 2°56.018 124.9 0.1 264 -999
2012-04-16 06:58:07 51°13.636 2°56.018 124.9 0.1 69 -999
2012-04-16 06:58:12 51°13.636 2°56.018 124.9 -999 92 -999
2012-04-16 06:58:17 51°13.636 2°56.018 124.9 -999 14 -999
2012-04-16 06:58:22 51°13.636 2°56.018 124.9 -999 197 -999
2012-04-16 06:58:27 51°13.636 2°56.018 124.8 0.1 252 -999
2012-04-16 06:58:32 51°13.636 2°56.018 124.8 0.1 260 -999
2012-04-16 06:58:37 51°13.636 2°56.018 124.7 0.1 244 -999
2012-04-16 06:58:42 51°13.636 2°56.018 124.7 -999 298 -999
2012-04-16 06:58:47 51°13.636 2°56.018 124.7 -999 53 -999
2012-04-16 06:58:52 51°13.636 2°56.018 124.7 0.1 62 -999
2012-04-16 06:58:57 51°13.636 2°56.018 124.7 -999 56 -999
2012-04-16 06:59:02 51°13.636 2°56.018 124.7 -999 276 -999
2012-04-16 06:59:07 51°13.636 2°56.018 124.7 -999 345 -999
2012-04-16 06:59:12 51°13.637 2°56.018 124.7 0.1 60 -999
2012-04-16 06:59:18 51°13.636 2°56.018 124.7 -999 74 -999
2012-04-16 06:59:22 51°13.636 2°56.018 124.6 0.1 267 -999
2012-04-16 06:59:27 51°13.637 2°56.018 124.6 -999 53 -999
2012-04-16 06:59:32 51°13.637 2°56.019 124.6 -999 66 -999
2012-04-16 06:59:37 51°13.637 2°56.019 124.6 -999 250 -999
2012-04-16 06:59:42 51°13.636 2°56.019 124.6 -999 268 -999
2012-04-16 06:59:47 51°13.636 2°56.019 124.5 0.1 261 -999
2012-04-16 06:59:52 51°13.636 2°56.019 124.5 -999 280 -999
2012-04-16 06:59:57 51°13.636 2°56.019 124.4 -999 232 -999
2012-04-16 07:00:03 51°13.636 2°56.019 124.4 -999 196 -999
2012-04-16 07:00:08 51°13.636 2°56.019 124.5 -999 251 -999
2012-04-16 07:00:12 51°13.636 2°56.019 124.6 -999 287 -999
2012-04-16 07:00:17 51°13.636 2°56.019 124.7 0.1 79 -999
2012-04-16 07:00:22 51°13.636 2°56.019 124.8 -999 163 -999
2012-04-16 07:00:27 51°13.636 2°56.019 124.8 -999 343 -999
2012-04-16 07:00:32 51°13.636 2°56.019 124.8 -999 256 -999
2012-04-16 07:00:37 51°13.636 2°56.019 124.7 -999 314 -999
2012-04-16 07:00:42 51°13.636 2°56.019 124.7 0.1 152 -999
2012-04-16 07:00:47 51°13.636 2°56.019 124.7 -999 24 -999
2012-04-16 07:00:52 51°13.636 2°56.019 124.8 -999 59 -999
2012-04-16 07:00:57 51°13.636 2°56.019 124.8 -999 61 -999
2012-04-16 07:01:02 51°13.636 2°56.019 124.8 -999 72 -999
2012-04-16 07:01:07 51°13.636 2°56.019 124.8 -999 48 -999
2012-04-16 07:01:12 51°13.636 2°56.019 124.8 -999 303 -999
2012-04-16 07:01:17 51°13.636 2°56.019 124.8 -999 313 -999
2012-04-16 07:01:22 51°13.636 2°56.02 124.8 0.1 38 -999
2012-04-16 07:01:27 51°13.636 2°56.019 124.8 -999 203 -999
2012-04-16 07:01:32 51°13.636 2°56.019 124.8 -999 272 -999
2012-04-16 07:01:37 51°13.636 2°56.019 124.9 -999 24 -999
2012-04-16 07:01:42 51°13.636 2°56.019 124.9 -999 51 -999
2012-04-16 07:01:47 51°13.636 2°56.019 124.9 -999 264 -999
2012-04-16 07:01:52 51°13.636 2°56.019 124.9 -999 291 -999
2012-04-16 07:01:57 51°13.636 2°56.019 124.9 -999 215 -999
2012-04-16 07:02:02 51°13.636 2°56.02 124.9 -999 164 -999
2012-04-16 07:02:07 51°13.636 2°56.02 124.9 0.1 248 -999
2012-04-16 07:02:12 51°13.636 2°56.019 124.9 -999 282 -999
2012-04-16 07:02:17 51°13.636 2°56.019 125 -999 49 -999
2012-04-16 07:02:22 51°13.636 2°56.019 125.1 0.1 105 -999
2012-04-16 07:02:27 51°13.636 2°56.019 125.1 -999 261 -999
2012-04-16 07:02:32 51°13.636 2°56.019 125.1 -999 51 -999
2012-04-16 07:02:37 51°13.636 2°56.02 125.1 -999 50 -999
2012-04-16 07:02:42 51°13.636 2°56.02 125.1 -999 55 -999
2012-04-16 07:02:48 51°13.636 2°56.02 125.1 -999 119 -999
2012-04-16 07:02:52 51°13.636 2°56.02 125 -999 74 -999
2012-04-16 07:02:57 51°13.636 2°56.02 125 -999 213 -999
2012-04-16 07:03:02 51°13.635 2°56.02 125 0.1 43 -999
2012-04-16 07:03:07 51°13.635 2°56.02 125 -999 197 -999
2012-04-16 07:03:12 51°13.636 2°56.02 125 -999 81 -999
2012-04-16 07:03:17 51°13.635 2°56.02 125 0.1 253 -999
2012-04-16 07:03:22 51°13.636 2°56.02 125 0.1 61 -999
2012-04-16 07:03:27 51°13.636 2°56.02 125 -999 163 -999
2012-04-16 07:03:32 51°13.636 2°56.019 125 -999 317 -999
2012-04-16 07:03:37 51°13.636 2°56.019 125.1 -999 293 -999
2012-04-16 07:03:42 51°13.636 2°56.019 125.1 -999 332 -999
2012-04-16 07:03:47 51°13.636 2°56.019 125.1 -999 240 -999
2012-04-16 07:03:52 51°13.636 2°56.019 125.1 0.1 35 -999
2012-04-16 07:03:58 51°13.636 2°56.019 125.1 -999 142 -999
2012-04-16 07:04:02 51°13.636 2°56.019 125.2 -999 267 -999
2012-04-16 07:04:07 51°13.636 2°56.019 125.2 -999 242 -999
2012-04-16 07:04:12 51°13.636 2°56.019 125.2 -999 354 -999
2012-04-16 07:04:17 51°13.636 2°56.019 125.3 -999 236 -999
2012-04-16 07:04:23 51°13.636 2°56.019 125.4 -999 259 -999
2012-04-16 07:04:27 51°13.636 2°56.019 125.5 -999 33 -999
2012-04-16 07:04:32 51°13.636 2°56.019 125.5 -999 167 -999
2012-04-16 07:04:37 51°13.636 2°56.019 125.5 -999 20 -999
2012-04-16 07:04:42 51°13.636 2°56.019 125.5 -999 117 -999
2012-04-16 07:04:47 51°13.636 2°56.019 125.5 -999 238 -999
2012-04-16 07:04:52 51°13.636 2°56.019 125.5 -999 225 -999
2012-04-16 07:04:57 51°13.636 2°56.019 125.5 0.1 263 -999
2012-04-16 07:05:02 51°13.636 2°56.019 125.5 -999 16 -999
2012-04-16 07:05:08 51°13.636 2°56.019 125.5 -999 89 -999
2012-04-16 07:05:12 51°13.636 2°56.019 125.5 -999 111 -999
2012-04-16 07:05:17 51°13.636 2°56.019 125.6 0.1 259 -999
2012-04-16 07:05:22 51°13.636 2°56.019 125.6 -999 280 -999
2012-04-16 07:05:27 51°13.636 2°56.019 125.6 -999 248 -999
2012-04-16 07:05:32 51°13.635 2°56.02 125.6 -999 271 -999
2012-04-16 07:05:37 51°13.635 2°56.02 125.6 -999 79 -999
2012-04-16 07:05:42 51°13.635 2°56.02 125.6 -999 165 -999
2012-04-16 07:05:47 51°13.635 2°56.02 125.7 -999 329 -999
2012-04-16 07:05:52 51°13.635 2°56.02 125.7 -999 240 -999
2012-04-16 07:05:57 51°13.635 2°56.02 125.6 -999 69 -999
2012-04-16 07:06:02 51°13.635 2°56.02 125.6 -999 182 -999
2012-04-16 07:06:07 51°13.636 2°56.02 125.4 -999 69 -999
2012-04-16 07:06:12 51°13.635 2°56.02 125.2 -999 84 -999
2012-04-16 07:06:17 51°13.635 2°56.02 125.1 -999 235 -999
2012-04-16 07:06:22 51°13.635 2°56.02 124.9 0.1 279 -999
2012-04-16 07:06:27 51°13.635 2°56.02 124.5 0.1 267 -999
2012-04-16 07:06:32 51°13.635 2°56.019 124.3 0.1 309 -999
2012-04-16 07:06:37 51°13.635 2°56.019 124.1 0.1 234 -999
2012-04-16 07:06:42 51°13.635 2°56.019 123.8 0.1 235 -999
2012-04-16 07:06:47 51°13.635 2°56.019 123.5 0.1 232 -999
2012-04-16 07:06:52 51°13.635 2°56.019 123.5 0.1 219 -999
2012-04-16 07:06:57 51°13.635 2°56.019 123.5 0.1 231 -999
2012-04-16 07:07:02 51°13.635 2°56.02 123.5 0.1 346 -999
2012-04-16 07:07:08 51°13.635 2°56.019 123.5 0.1 357 -999
2012-04-16 07:07:12 51°13.636 2°56.019 122.9 0.1 282 -999
2012-04-16 07:07:17 51°13.636 2°56.019 122.5 0.1 109 -999
2012-04-16 07:07:22 51°13.635 2°56.019 122.5 0.1 194 -999
2012-04-16 07:07:27 51°13.635 2°56.019 122.8 0.1 216 -999
2012-04-16 07:07:32 51°13.635 2°56.019 123.5 0.1 187 -999
2012-04-16 07:07:37 51°13.635 2°56.019 123.9 -999 255 -999
2012-04-16 07:07:42 51°13.635 2°56.019 124.4 -999 50 -999
2012-04-16 07:07:47 51°13.635 2°56.019 124.6 -999 102 -999
2012-04-16 07:07:52 51°13.636 2°56.019 124.5 -999 356 -999
2012-04-16 07:07:57 51°13.636 2°56.019 124.4 0.1 101 -999
2012-04-16 07:08:02 51°13.636 2°56.019 124.4 -999 2 -999
2012-04-16 07:08:07 51°13.635 2°56.019 124.4 -999 207 -999
2012-04-16 07:08:12 51°13.635 2°56.019 124.4 -999 320 -999
2012-04-16 07:08:17 51°13.635 2°56.02 124.5 0.1 57 -999
2012-04-16 07:08:22 51°13.635 2°56.02 124.7 -999 104 -999
2012-04-16 07:08:27 51°13.635 2°56.02 124.8 0.1 41 -999
2012-04-16 07:08:32 51°13.635 2°56.02 124.8 -999 55 -999
2012-04-16 07:08:38 51°13.635 2°56.02 124.9 -999 6 -999
2012-04-16 07:08:42 51°13.635 2°56.02 125.2 -999 31 -999
2012-04-16 07:08:47 51°13.636 2°56.02 125.3 -999 24 -999
2012-04-16 07:08:52 51°13.636 2°56.02 125.4 -999 49 -999
2012-04-16 07:08:57 51°13.636 2°56.02 125.4 -999 284 -999
2012-04-16 07:09:02 51°13.636 2°56.02 125.4 -999 345 -999
2012-04-16 07:09:08 51°13.636 2°56.02 125.6 -999 206 -999
2012-04-16 07:09:12 51°13.636 2°56.02 125.9 -999 254 -999
2012-04-16 07:09:17 51°13.635 2°56.02 126.3 0.1 225 -999
2012-04-16 07:09:22 51°13.635 2°56.019 126.7 -999 263 -999
2012-04-16 07:09:28 51°13.636 2°56.02 127.4 -999 247 -999
2012-04-16 07:09:32 51°13.635 2°56.019 127.9 0.1 232 -999
2012-04-16 07:09:37 51°13.636 2°56.019 128.5 0.1 259 -999
2012-04-16 07:09:42 51°13.636 2°56.019 128.7 -999 261 9.7
2012-04-16 07:09:47 51°13.636 2°56.019 129.1 -999 40 -999
2012-04-16 07:09:52 51°13.635 2°56.019 129.5 -999 80 -999
2012-04-16 07:09:57 51°13.635 2°56.019 129.8 0.1 229 -999
2012-04-16 07:10:02 51°13.635 2°56.019 129.8 -999 83 -999
2012-04-16 07:10:07 51°13.635 2°56.019 129.1 0.1 100 -999
2012-04-16 07:10:12 51°13.635 2°56.019 128.3 0.1 93 -999
2012-04-16 07:10:17 51°13.635 2°56.019 126.9 -999 122 -999
2012-04-16 07:10:22 51°13.635 2°56.019 124.8 0.1 81 -999
2012-04-16 07:10:27 51°13.635 2°56.02 123.3 0.1 96 9.6
2012-04-16 07:10:32 51°13.635 2°56.02 121.9 0.1 150 -999
2012-04-16 07:10:37 51°13.635 2°56.02 120 0.1 176 -999
2012-04-16 07:10:42 51°13.635 2°56.02 117.8 0.1 203 -999
2012-04-16 07:10:47 51°13.635 2°56.019 116.4 0.2 194 9.7
2012-04-16 07:10:52 51°13.634 2°56.019 115.1 0.2 201 -999
2012-04-16 07:10:57 51°13.634 2°56.019 113.8 0.2 201 9.9
2012-04-16 07:11:03 51°13.634 2°56.019 112.1 0.1 200 -999
2012-04-16 07:11:07 51°13.634 2°56.019 110.4 0.1 205 -999
2012-04-16 07:11:12 51°13.634 2°56.019 109.4 0.1 217 9.7
2012-04-16 07:11:17 51°13.634 2°56.018 108.3 0.2 250 -999
2012-04-16 07:11:22 51°13.634 2°56.016 107.4 0.8 287 -999
2012-04-16 07:11:27 51°13.635 2°56.014 106.8 1.5 280 -999
2012-04-16 07:11:32 51°13.635 2°56.01 106.8 1.9 287 -999
2012-04-16 07:11:37 51°13.636 2°56.004 107 2.4 286 -999
2012-04-16 07:11:42 51°13.638 2°55.998 107.7 2.9 289 9.9
2012-04-16 07:11:48 51°13.639 2°55.99 108 3.4 288 -999
2012-04-16 07:11:52 51°13.64 2°55.984 108.3 3.6 288 -999
2012-04-16 07:11:57 51°13.642 2°55.976 108.3 3.7 288 -999
2012-04-16 07:12:02 51°13.643 2°55.968 108.3 3.7 287 -999
2012-04-16 07:12:07 51°13.645 2°55.961 108.3 3.7 288 -999
2012-04-16 07:12:12 51°13.646 2°55.953 108.8 3.6 287 -999
2012-04-16 07:12:17 51°13.647 2°55.944 109.4 3.7 287 -999
2012-04-16 07:12:22 51°13.649 2°55.937 110.5 3.8 288 -999
2012-04-16 07:12:27 51°13.651 2°55.929 112.1 3.8 289 -999
2012-04-16 07:12:32 51°13.653 2°55.92 113.3 3.9 290 -999
2012-04-16 07:12:37 51°13.654 2°55.912 115.2 4.1 291 -999
2012-04-16 07:12:42 51°13.657 2°55.904 117 4.2 294 -999
2012-04-16 07:12:47 51°13.66 2°55.895 119.1 4.3 296 -999
2012-04-16 07:12:52 51°13.663 2°55.887 121 4.4 299 -999
2012-04-16 07:12:57 51°13.666 2°55.878 122.4 4.5 299 -999
2012-04-16 07:13:02 51°13.669 2°55.87 124.2 4.5 301 -999
2012-04-16 07:13:07 51°13.672 2°55.861 125.7 4.6 302 -999
2012-04-16 07:13:12 51°13.676 2°55.853 126.4 4.6 304 -999
2012-04-16 07:13:17 51°13.679 2°55.844 127.6 4.8 305 -999
2012-04-16 07:13:23 51°13.684 2°55.833 128.8 5 307 -999
2012-04-16 07:13:27 51°13.688 2°55.826 129.8 5.1 307 -999
2012-04-16 07:13:32 51°13.692 2°55.817 130.4 5.2 308 -999
2012-04-16 07:13:37 51°13.696 2°55.808 130.5 5.1 308 -999
2012-04-16 07:13:42 51°13.7 2°55.8 130.5 4.8 308 -999
2012-04-16 07:13:47 51°13.704 2°55.791 130.5 4.7 308 -999
2012-04-16 07:13:52 51°13.708 2°55.783 130.5 4.6 308 -999
2012-04-16 07:13:57 51°13.712 2°55.775 130.3 4.7 308 -999
2012-04-16 07:14:02 51°13.716 2°55.767 130.5 4.7 309 -999
2012-04-16 07:14:07 51°13.72 2°55.759 131.2 4.8 310 -999
2012-04-16 07:14:12 51°13.725 2°55.751 131.9 4.8 310 -999
2012-04-16 07:14:17 51°13.728 2°55.742 132.6 4.9 309 -999
2012-04-16 07:14:22 51°13.733 2°55.734 133.4 4.9 311 -999
2012-04-16 07:14:27 51°13.738 2°55.726 134.5 5 311 -999
2012-04-16 07:14:32 51°13.743 2°55.718 135.1 5 313 -999
2012-04-16 07:14:37 51°13.747 2°55.71 136.2 5 314 -999
2012-04-16 07:14:42 51°13.752 2°55.702 137.5 5 315 -999
2012-04-16 07:14:47 51°13.757 2°55.694 139 5.1 316 -999
2012-04-16 07:14:52 51°13.763 2°55.687 139.9 5.1 318 -999
2012-04-16 07:14:57 51°13.768 2°55.679 141.1 5.1 318 -999
2012-04-16 07:15:02 51°13.773 2°55.672 142.7 5.1 320 -999
2012-04-16 07:15:07 51°13.779 2°55.665 144.4 5.1 322 -999
2012-04-16 07:15:12 51°13.785 2°55.658 146.5 5.1 323 -999
2012-04-16 07:15:17 51°13.791 2°55.652 148.8 5 326 -999
2012-04-16 07:15:22 51°13.796 2°55.646 151.1 5.1 327 -999
2012-04-16 07:15:27 51°13.802 2°55.639 153.5 5.2 329 -999
2012-04-16 07:15:32 51°13.809 2°55.634 154.7 5.2 331 -999
2012-04-16 07:15:37 51°13.815 2°55.629 156.1 5.2 332 -999
2012-04-16 07:15:43 51°13.823 2°55.623 157.3 5.1 333 -999
2012-04-16 07:15:47 51°13.828 2°55.62 158.6 5 336 -999
2012-04-16 07:15:52 51°13.835 2°55.615 159.8 5 337 -999
2012-04-16 07:15:57 51°13.841 2°55.611 161.6 4.9 339 -999
2012-04-16 07:16:02 51°13.847 2°55.608 163.4 4.8 341 -999
2012-04-16 07:16:08 51°13.855 2°55.604 165.7 4.8 343 -999
2012-04-16 07:16:12 51°13.86 2°55.601 167.3 4.8 343 -999
2012-04-16 07:16:17 51°13.866 2°55.599 169.3 4.6 346 -999
2012-04-16 07:16:22 51°13.872 2°55.597 171.7 4.5 349 -999
2012-04-16 07:16:27 51°13.878 2°55.595 174.7 4.5 352 -999
2012-04-16 07:16:32 51°13.884 2°55.594 178 4.3 354 -999
2012-04-16 07:16:37 51°13.89 2°55.594 181.4 4.1 357 -999
2012-04-16 07:16:42 51°13.896 2°55.594 184.5 4.1 1 -999
2012-04-16 07:16:47 51°13.901 2°55.594 187.7 3.9 3 -999
2012-04-16 07:16:52 51°13.906 2°55.595 191.6 3.8 6 -999
2012-04-16 07:16:57 51°13.911 2°55.597 194.3 3.6 11 -999
2012-04-16 07:17:02 51°13.916 2°55.599 197.7 3.5 12 -999
2012-04-16 07:17:07 51°13.921 2°55.601 201.2 3.5 18 -999
2012-04-16 07:17:12 51°13.925 2°55.603 204.6 3.4 21 -999
2012-04-16 07:17:18 51°13.93 2°55.607 207.9 3.4 25 -999
2012-04-16 07:17:22 51°13.934 2°55.61 211.6 3.5 29 -999
2012-04-16 07:17:27 51°13.937 2°55.614 215.6 3.5 34 -999
2012-04-16 07:17:32 51°13.941 2°55.619 218.6 3.3 35 -999
2012-04-16 07:17:37 51°13.944 2°55.623 222 3 38 -999
2012-04-16 07:17:43 51°13.948 2°55.628 224.4 2.9 40 -999
2012-04-16 07:17:47 51°13.95 2°55.631 226.6 2.3 45 -999
2012-04-16 07:17:52 51°13.952 2°55.633 228.3 1.5 41 -999
2012-04-16 07:17:57 51°13.952 2°55.634 231 0.3 45 -999
2012-04-16 07:18:02 51°13.952 2°55.633 235.8 0.6 263 -999
2012-04-16 07:18:07 51°13.951 2°55.631 243.6 1.3 250 -999
2012-04-16 07:18:12 51°13.951 2°55.626 249.8 1.8 259 -999
2012-04-16 07:18:17 51°13.951 2°55.622 258.1 2.3 266 -999
2012-04-16 07:18:22 51°13.951 2°55.616 265.8 2.8 273 -999
2012-04-16 07:18:28 51°13.952 2°55.608 275.2 3.1 281 -999
2012-04-16 07:18:32 51°13.953 2°55.602 281.7 3.3 288 -999
2012-04-16 07:18:37 51°13.955 2°55.595 289.7 3.6 296 -999
2012-04-16 07:18:42 51°13.958 2°55.588 297.5 3.9 304 -999
2012-04-16 07:18:47 51°13.961 2°55.581 305.4 4.1 310 -999
2012-04-16 07:18:52 51°13.966 2°55.575 313.2 4.4 317 -999
2012-04-16 07:18:57 51°13.971 2°55.567 319.2 4.8 319 12.4
2012-04-16 07:19:02 51°13.977 2°55.561 323.1 5.3 324 -999
2012-04-16 07:19:07 51°13.983 2°55.553 325.6 5.7 324 -999
2012-04-16 07:19:12 51°13.99 2°55.545 327.3 6 326 -999